createdAt,value
2019-01-27T00:01:05.493Z,28.12
2019-01-27T00:03:34.571Z,28.90
2019-01-27T00:06:03.876Z,30.65
2019-01-27T00:08:32.978Z,29.57
2019-01-27T00:11:02.076Z,29.63
2019-01-27T00:13:31.104Z,28.57
2019-01-27T00:16:00.344Z,29.63
2019-01-27T00:18:29.220Z,31.70
2019-01-27T00:20:58.112Z,27.85
2019-01-27T00:23:27.101Z,28.17
2019-01-27T00:25:56.096Z,30.40
2019-01-27T00:28:25.099Z,27.02
2019-01-27T00:30:54.189Z,26.62
2019-01-27T00:33:23.265Z,26.42
2019-01-27T00:35:52.352Z,25.68
2019-01-27T00:38:21.515Z,25.57
2019-01-27T00:40:50.491Z,22.30
2019-01-27T00:43:19.429Z,24.55
2019-01-27T00:45:48.190Z,26.27
2019-01-27T00:48:17.215Z,24.43
2019-01-27T00:50:46.459Z,22.58
2019-01-27T00:53:15.424Z,23.38
2019-01-27T00:55:44.316Z,20.80
2019-01-27T00:58:13.334Z,19.95
2019-01-27T01:00:42.307Z,21.95
2019-01-27T01:03:11.223Z,19.12
2019-01-27T01:05:40.050Z,19.98
2019-01-27T01:08:09.843Z,19.12
2019-01-27T01:10:38.746Z,17.67
2019-01-27T01:13:07.810Z,20.27
2019-01-27T01:15:36.731Z,18.15
2019-01-27T01:18:06.474Z,17.48
2019-01-27T01:20:35.378Z,17.57
2019-01-27T01:23:04.277Z,17.75
2019-01-27T01:25:33.194Z,16.87
2019-01-27T01:28:02.021Z,15.60
2019-01-27T01:30:30.999Z,17.77
2019-01-27T01:32:59.971Z,17.30
2019-01-27T01:35:28.884Z,17.42
2019-01-27T01:37:57.691Z,16.67
2019-01-27T01:40:26.695Z,18.12
2019-01-27T01:42:55.535Z,18.85
2019-01-27T01:45:29.306Z,18.30
2019-01-27T01:47:58.244Z,20.60
2019-01-27T01:50:27.212Z,19.20
2019-01-27T01:52:56.411Z,18.75
2019-01-27T01:55:25.270Z,20.27
2019-01-27T01:57:54.131Z,20.82
2019-01-27T02:00:24.840Z,19.92
2019-01-27T02:02:53.759Z,21.62
2019-01-27T02:05:22.733Z,21.95
2019-01-27T02:07:51.656Z,20.27
2019-01-27T02:10:21.223Z,22.82
2019-01-27T02:12:50.734Z,21.85
2019-01-27T02:16:07.149Z,21.17
2019-01-27T02:18:36.855Z,20.88
2019-01-27T02:21:06.638Z,21.40
2019-01-27T02:23:36.033Z,20.82
2019-01-27T02:26:05.803Z,23.00
2019-01-27T02:28:34.829Z,23.00
2019-01-27T02:31:03.838Z,19.27
2019-01-27T02:33:32.792Z,20.37
2019-01-27T02:36:01.579Z,19.10
2019-01-27T02:38:30.377Z,19.67
2019-01-27T02:40:59.163Z,19.25
2019-01-27T02:43:27.982Z,19.35
2019-01-27T02:45:56.776Z,17.85
2019-01-27T02:48:25.555Z,17.25
2019-01-27T02:50:54.430Z,18.70
2019-01-27T02:53:23.336Z,17.85
2019-01-27T02:55:52.099Z,18.45
2019-01-27T02:58:20.869Z,16.27
2019-01-27T03:00:49.768Z,17.20
2019-01-27T03:03:18.595Z,14.90
2019-01-27T03:06:05.236Z,16.82
2019-01-27T03:08:37.218Z,14.98
2019-01-27T03:11:06.219Z,13.13
2019-01-27T03:13:34.992Z,13.83
2019-01-27T03:16:04.094Z,12.73
2019-01-27T03:18:33.018Z,11.50
2019-01-27T03:21:01.807Z,13.13
2019-01-27T03:23:30.675Z,11.25
2019-01-27T03:25:59.541Z,11.93
2019-01-27T03:28:28.368Z,11.05
2019-01-27T03:30:57.283Z,11.90
2019-01-27T03:33:26.039Z,11.35
2019-01-27T03:35:54.841Z,9.53
2019-01-27T03:38:23.774Z,9.30
2019-01-27T03:40:52.589Z,9.85
2019-01-27T03:43:21.574Z,9.18
2019-01-27T03:45:50.456Z,8.15
2019-01-27T03:48:19.886Z,8.98
2019-01-27T03:50:48.699Z,9.45
2019-01-27T03:53:17.728Z,8.30
2019-01-27T03:55:46.788Z,8.95
2019-01-27T03:58:15.647Z,9.40
2019-01-27T04:00:44.551Z,8.40
2019-01-27T04:03:13.385Z,9.18
2019-01-27T04:05:42.241Z,9.00
2019-01-27T04:08:11.822Z,8.55
2019-01-27T04:10:40.608Z,8.30
2019-01-27T04:13:09.629Z,8.15
2019-01-27T04:15:38.508Z,8.75
2019-01-27T04:18:07.460Z,8.35
2019-01-27T04:20:39.489Z,8.48
2019-01-27T04:23:08.449Z,8.40
2019-01-27T04:25:37.610Z,8.65
2019-01-27T04:28:06.551Z,8.75
2019-01-27T04:30:37.230Z,9.40
2019-01-27T04:33:06.226Z,9.23
2019-01-27T04:35:35.044Z,9.88
2019-01-27T04:38:04.460Z,9.25
2019-01-27T04:40:33.322Z,9.00
2019-01-27T04:43:02.240Z,8.60
2019-01-27T04:45:33.980Z,9.83
2019-01-27T04:48:02.776Z,9.60
2019-01-27T04:50:31.972Z,9.58
2019-01-27T04:53:00.750Z,9.80
2019-01-27T04:55:29.514Z,9.83
2019-01-27T04:57:58.322Z,8.00
2019-01-27T05:00:27.305Z,9.63
2019-01-27T05:03:04.677Z,8.53
2019-01-27T05:05:33.423Z,8.70
2019-01-27T05:08:02.400Z,9.70
2019-01-27T05:10:31.589Z,8.73
2019-01-27T05:13:00.460Z,8.08
2019-01-27T05:15:29.996Z,8.65
2019-01-27T05:17:59.162Z,8.40
2019-01-27T05:20:27.986Z,9.10
2019-01-27T05:22:56.886Z,8.33
2019-01-27T05:25:25.622Z,8.68
2019-01-27T05:27:54.552Z,9.15
2019-01-27T05:30:23.596Z,8.25
2019-01-27T05:32:52.503Z,8.80
2019-01-27T05:35:21.432Z,9.55
2019-01-27T05:37:50.269Z,8.48
2019-01-27T05:40:19.198Z,8.15
2019-01-27T05:42:47.988Z,8.23
2019-01-27T05:45:16.830Z,9.25
2019-01-27T05:47:45.679Z,8.30
2019-01-27T05:50:14.850Z,8.43
2019-01-27T05:52:43.876Z,7.95
2019-01-27T05:55:14.056Z,8.25
2019-01-27T05:57:43.065Z,8.48
2019-01-27T06:00:23.605Z,8.68
2019-01-27T06:02:52.442Z,9.23
2019-01-27T06:05:21.432Z,9.23
2019-01-27T06:07:50.365Z,9.98
2019-01-27T06:10:19.307Z,8.23
2019-01-27T06:12:48.122Z,8.78
2019-01-27T06:15:17.675Z,8.50
2019-01-27T06:17:46.612Z,8.00
2019-01-27T06:20:16.025Z,9.10
2019-01-27T06:22:45.047Z,8.13
2019-01-27T06:25:15.209Z,7.92
2019-01-27T06:27:44.068Z,9.53
2019-01-27T06:30:18.791Z,8.15
2019-01-27T06:33:12.627Z,7.33
2019-01-27T06:35:41.560Z,7.70
2019-01-27T06:38:10.423Z,8.78
2019-01-27T06:40:39.161Z,7.35
2019-01-27T06:43:08.045Z,7.22
2019-01-27T06:45:36.908Z,6.87
2019-01-27T06:48:05.868Z,6.75
2019-01-27T06:50:34.813Z,8.73
2019-01-27T06:53:03.678Z,7.58
2019-01-27T06:55:32.525Z,7.47
2019-01-27T06:58:01.299Z,6.53
2019-01-27T07:00:52.443Z,8.33
2019-01-27T07:03:43.272Z,7.47
2019-01-27T07:06:22.399Z,7.80
2019-01-27T07:09:00.338Z,6.67
2019-01-27T07:11:48.192Z,7.25
2019-01-27T07:14:27.500Z,7.12
2019-01-27T07:17:24.316Z,7.60
2019-01-27T07:20:16.988Z,6.65
2019-01-27T07:23:07.170Z,6.60
2019-01-27T07:25:42.500Z,7.60
2019-01-27T07:28:48.776Z,8.03
2019-01-27T07:31:35.477Z,7.53
2019-01-27T07:34:23.606Z,7.47
2019-01-27T07:37:20.492Z,6.53
2019-01-27T07:39:59.185Z,6.28
2019-01-27T07:42:56.179Z,8.30
2019-01-27T07:45:41.874Z,6.53
2019-01-27T07:48:26.578Z,6.25
2019-01-27T07:51:16.033Z,6.78
2019-01-27T07:53:56.648Z,7.30
2019-01-27T07:56:47.568Z,6.58
2019-01-27T07:59:33.279Z,6.42
2019-01-27T08:02:29.993Z,6.80
2019-01-27T08:05:05.816Z,7.28
2019-01-27T08:07:42.561Z,7.50
2019-01-27T08:10:19.577Z,7.62
2019-01-27T08:13:11.451Z,7.60
2019-01-27T08:16:05.484Z,7.97
2019-01-27T08:18:53.739Z,6.47
2019-01-27T08:21:58.751Z,6.80
2019-01-27T08:24:35.836Z,6.42
2019-01-27T08:27:33.030Z,6.83
2019-01-27T08:30:16.487Z,6.50
2019-01-27T08:32:52.879Z,5.92
2019-01-27T08:35:49.756Z,6.05
2019-01-27T08:38:40.311Z,6.05
2019-01-27T08:41:28.527Z,6.00
2019-01-27T08:44:15.539Z,6.60
2019-01-27T08:46:51.857Z,5.85
2019-01-27T08:49:21.025Z,6.40
2019-01-27T08:51:50.032Z,6.10
2019-01-27T08:54:19.052Z,5.47
2019-01-27T08:56:47.823Z,6.33
2019-01-27T08:59:16.663Z,5.15
2019-01-27T09:02:10.601Z,6.42
2019-01-27T09:04:48.014Z,5.75
2019-01-27T09:07:40.828Z,6.40
2019-01-27T09:10:29.395Z,5.90
2019-01-27T09:13:17.379Z,5.70
2019-01-27T09:16:18.094Z,5.40
2019-01-27T09:18:55.601Z,6.25
2019-01-27T09:21:42.413Z,5.17
2019-01-27T09:24:19.993Z,5.50
2019-01-27T09:26:58.603Z,5.72
2019-01-27T09:29:37.993Z,5.60
2019-01-27T09:32:26.255Z,5.62
2019-01-27T09:35:03.414Z,5.87
2019-01-27T09:37:44.207Z,5.58
2019-01-27T09:40:31.895Z,5.25
2019-01-27T09:43:18.894Z,4.45
2019-01-27T09:46:05.374Z,4.47
2019-01-27T09:48:41.392Z,5.42
2019-01-27T09:51:36.004Z,6.00
2019-01-27T09:54:24.911Z,6.12
2019-01-27T09:57:13.980Z,5.05
2019-01-27T10:00:05.459Z,4.58
2019-01-27T10:02:41.419Z,4.25
2019-01-27T10:05:29.036Z,4.78
2019-01-27T10:08:23.241Z,5.05
2019-01-27T10:11:07.932Z,4.42
2019-01-27T10:13:56.435Z,4.70
2019-01-27T10:16:56.560Z,4.70
2019-01-27T10:19:31.751Z,4.40
2019-01-27T10:22:27.910Z,4.10
2019-01-27T10:25:16.061Z,4.58
2019-01-27T10:28:14.443Z,4.05
2019-01-27T10:31:00.948Z,5.67
2019-01-27T10:33:52.065Z,4.45
2019-01-27T10:36:46.112Z,4.17
2019-01-27T10:39:26.045Z,4.35
2019-01-27T10:42:17.061Z,3.95
2019-01-27T10:45:05.546Z,3.00
2019-01-27T10:48:02.876Z,3.62
2019-01-27T10:50:54.224Z,3.58
2019-01-27T10:56:52.550Z,3.05
2019-01-27T10:59:40.878Z,2.87
2019-01-27T11:02:43.903Z,2.92
2019-01-27T11:05:32.920Z,3.33
2019-01-27T11:52:36.405Z,2.65
2019-01-27T11:55:06.882Z,2.95
2019-01-27T11:57:36.178Z,3.72
2019-01-27T12:00:07.142Z,2.50
2019-01-27T12:02:46.765Z,2.47
2019-01-27T12:05:23.294Z,3.10
2019-01-27T12:08:33.328Z,3.30
2019-01-27T12:11:09.449Z,2.62
2019-01-27T12:13:46.518Z,3.65
2019-01-27T12:16:32.845Z,2.72
2019-01-27T12:19:07.054Z,3.33
2019-01-27T12:39:41.276Z,3.00
2019-01-27T12:43:11.584Z,2.90
2019-01-27T12:53:12.453Z,3.75
2019-01-27T13:16:11.902Z,3.65
2019-01-27T13:19:44.954Z,3.58
2019-01-27T13:22:26.037Z,3.25
2019-01-27T13:25:38.994Z,3.30
2019-01-27T13:28:14.805Z,3.10
2019-01-27T13:31:18.951Z,3.45
2019-01-27T13:33:51.199Z,3.20
2019-01-27T13:36:20.417Z,3.20
2019-01-27T13:42:03.272Z,4.10
2019-01-27T13:44:32.176Z,3.25
2019-01-27T13:47:01.186Z,3.50
2019-01-27T13:49:30.129Z,4.05
2019-01-27T13:51:58.992Z,3.77
2019-01-27T13:54:28.554Z,3.37
2019-01-27T13:56:57.455Z,3.30
2019-01-27T13:59:27.392Z,3.70
2019-01-27T14:01:56.206Z,3.45
2019-01-27T14:04:25.425Z,3.30
2019-01-27T14:06:55.139Z,2.72
2019-01-27T14:09:23.941Z,3.12
2019-01-27T14:11:52.815Z,3.15
2019-01-27T14:14:21.836Z,2.80
2019-01-27T14:16:52.867Z,2.98
2019-01-27T14:19:21.827Z,3.50
2019-01-27T14:21:50.949Z,2.70
2019-01-27T14:24:19.874Z,2.95
2019-01-27T14:26:48.912Z,3.00
2019-01-27T14:29:18.775Z,2.95
2019-01-27T14:32:04.106Z,3.40
2019-01-27T14:34:35.178Z,3.62
2019-01-27T14:40:09.906Z,3.05
2019-01-27T14:43:05.720Z,2.87
2019-01-27T14:50:01.589Z,3.52
2019-01-27T14:53:51.607Z,2.87
2019-01-27T14:56:59.241Z,3.02
2019-01-27T14:59:27.395Z,3.05
2019-01-27T15:01:56.323Z,3.47
2019-01-27T15:04:25.111Z,3.58
2019-01-27T15:06:54.001Z,3.00
2019-01-27T15:09:22.823Z,3.50
2019-01-27T15:11:53.247Z,2.98
2019-01-27T15:14:22.248Z,3.30
2019-01-27T15:16:51.308Z,3.80
2019-01-27T15:19:20.195Z,3.50
2019-01-27T15:21:49.262Z,3.17
2019-01-27T15:24:18.093Z,3.00
2019-01-27T15:26:48.110Z,4.03
2019-01-27T15:29:17.286Z,3.22
2019-01-27T15:31:50.721Z,3.50
2019-01-27T15:34:19.972Z,3.72
2019-01-27T15:36:49.101Z,5.00
2019-01-27T15:39:18.090Z,3.75
2019-01-27T15:42:08.584Z,4.17
2019-01-27T15:44:40.397Z,3.83
2019-01-27T15:47:11.907Z,4.72
2019-01-27T15:49:41.401Z,4.50
2019-01-27T15:55:54.173Z,4.50
2019-01-27T15:58:21.830Z,4.50
2019-01-27T16:00:52.719Z,4.60
2019-01-27T16:03:21.751Z,5.47
2019-01-27T16:05:50.780Z,5.83
2019-01-27T16:08:19.760Z,5.70
2019-01-27T16:10:53.276Z,6.65
2019-01-27T16:13:22.792Z,5.30
2019-01-27T16:15:51.908Z,5.58
2019-01-27T16:18:20.735Z,6.00
2019-01-27T16:20:49.884Z,5.70
2019-01-27T16:23:40.073Z,6.58
2019-01-27T16:26:09.274Z,6.47
2019-01-27T16:28:42.351Z,5.72
2019-01-27T16:31:29.495Z,5.92
2019-01-27T16:34:06.853Z,6.35
2019-01-27T16:36:35.923Z,5.67
2019-01-27T16:39:09.750Z,5.85
2019-01-27T16:41:38.696Z,5.85
2019-01-27T16:44:08.144Z,7.12
2019-01-27T16:46:36.966Z,6.17
2019-01-27T16:49:06.088Z,6.75
2019-01-27T16:51:35.131Z,7.30
2019-01-27T16:54:04.496Z,6.65
2019-01-27T16:56:33.372Z,6.87
2019-01-27T16:59:02.208Z,5.80
2019-01-27T17:01:31.133Z,6.20
2019-01-27T17:04:00.051Z,6.28
2019-01-27T17:06:28.851Z,6.40
2019-01-27T17:08:58.443Z,6.20
2019-01-27T17:11:27.587Z,6.10
2019-01-27T17:13:56.623Z,6.83
2019-01-27T17:16:25.772Z,6.47
2019-01-27T17:18:55.143Z,6.50
2019-01-27T17:21:24.065Z,7.33
2019-01-27T17:23:52.861Z,6.30
2019-01-27T17:26:21.798Z,7.05
2019-01-27T17:28:50.578Z,6.75
2019-01-27T17:31:19.739Z,6.90
2019-01-27T17:33:48.623Z,7.53
2019-01-27T17:36:17.686Z,7.03
2019-01-27T17:38:46.611Z,7.35
2019-01-27T17:41:15.595Z,7.53
2019-01-27T17:43:44.584Z,7.03
2019-01-27T17:46:13.717Z,7.70
2019-01-27T17:48:42.693Z,8.98
2019-01-27T17:51:11.497Z,7.40
2019-01-27T17:53:51.083Z,7.95
2019-01-27T17:56:20.211Z,8.73
2019-01-27T17:58:57.221Z,9.78
2019-01-27T18:01:44.202Z,9.78
2019-01-27T18:04:41.497Z,9.95
2019-01-27T18:07:29.516Z,10.50
2019-01-27T18:10:26.667Z,10.23
2019-01-27T18:13:20.845Z,11.20
2019-01-27T18:15:51.488Z,9.95
2019-01-27T18:18:40.420Z,10.70
2019-01-27T18:21:09.522Z,8.88
2019-01-27T18:23:39.015Z,10.78
2019-01-27T18:26:08.093Z,10.80
2019-01-27T18:28:37.163Z,9.85
2019-01-27T18:31:06.275Z,10.23
2019-01-27T18:33:35.155Z,10.50
2019-01-27T18:36:04.672Z,11.05
2019-01-27T18:38:33.624Z,10.80
2019-01-27T18:41:02.700Z,11.83
2019-01-27T18:43:31.760Z,11.88
2019-01-27T18:46:00.956Z,10.35
2019-01-27T18:48:30.071Z,11.70
2019-01-27T18:50:58.927Z,9.98
2019-01-27T18:53:53.049Z,11.60
2019-01-27T18:56:27.681Z,11.50
2019-01-27T18:59:02.927Z,11.78
2019-01-27T19:02:00.192Z,12.20
2019-01-27T19:04:37.555Z,13.58
2019-01-27T19:07:27.830Z,14.03
2019-01-27T19:10:09.315Z,14.93
2019-01-27T19:12:57.906Z,14.20
2019-01-27T19:15:40.601Z,12.47
2019-01-27T19:18:28.139Z,13.53
2019-01-27T19:21:08.307Z,13.90
2019-01-27T19:23:57.939Z,15.23
2019-01-27T19:26:45.399Z,13.80
2019-01-27T19:29:24.515Z,14.40
2019-01-27T19:32:15.562Z,16.67
2019-01-27T19:35:03.558Z,13.95
2019-01-27T19:37:41.822Z,18.80
2019-01-27T19:40:33.451Z,18.00
2019-01-27T19:43:22.274Z,16.15
2019-01-27T19:46:22.874Z,14.05
2019-01-27T19:48:57.022Z,15.90
2019-01-27T19:52:03.680Z,17.15
2019-01-27T19:57:50.143Z,16.20
2019-01-27T20:00:40.095Z,15.78
2019-01-27T20:03:34.492Z,15.98
2019-01-27T20:06:08.096Z,15.48
2019-01-27T20:08:43.794Z,15.68
2019-01-27T20:11:30.216Z,14.58
2019-01-27T20:14:27.026Z,13.20
2019-01-27T20:17:18.203Z,11.63
2019-01-27T20:20:10.906Z,11.10
2019-01-27T20:23:17.601Z,11.05
2019-01-27T20:26:23.912Z,11.88
2019-01-27T20:29:27.547Z,10.30
2019-01-27T20:32:19.862Z,11.00
2019-01-27T20:35:08.415Z,10.08
2019-01-27T20:38:02.218Z,9.93
2019-01-27T20:41:21.789Z,11.15
2019-01-27T20:44:20.977Z,7.80
2019-01-27T20:47:24.794Z,9.80
2019-01-27T20:50:04.224Z,8.40
2019-01-27T20:52:48.259Z,8.28
2019-01-27T20:55:42.675Z,10.00
2019-01-27T20:58:46.491Z,8.55
2019-01-27T21:01:33.324Z,7.78
2019-01-27T21:04:21.442Z,6.75
2019-01-27T21:07:02.412Z,7.42
2019-01-27T21:09:59.788Z,7.35
2019-01-27T21:12:38.102Z,7.15
2019-01-27T21:15:22.883Z,6.72
2019-01-27T21:18:17.765Z,7.90
2019-01-27T21:20:47.507Z,7.50
2019-01-27T21:23:16.643Z,6.95
2019-01-27T21:25:45.990Z,5.42
2019-01-27T21:28:15.081Z,4.85
2019-01-27T21:30:44.115Z,5.55
2019-01-27T21:33:14.238Z,4.42
2019-01-27T21:35:44.352Z,4.10
2019-01-27T21:38:13.539Z,4.92
2019-01-27T21:40:43.217Z,4.58
2019-01-27T21:43:14.540Z,4.05
2019-01-27T21:45:43.659Z,4.65
2019-01-27T21:48:12.807Z,4.17
2019-01-27T21:50:41.861Z,3.87
2019-01-27T21:53:10.868Z,3.47
2019-01-27T21:55:39.936Z,3.67
2019-01-27T21:58:08.972Z,3.77
2019-01-27T22:00:37.749Z,3.67
2019-01-27T22:03:06.600Z,3.40
2019-01-27T22:05:35.600Z,3.35
2019-01-27T22:08:04.638Z,3.47
2019-01-27T22:10:33.628Z,4.62
2019-01-27T22:13:02.922Z,3.55
2019-01-27T22:15:31.894Z,3.87
2019-01-27T22:18:00.676Z,3.90
2019-01-27T22:20:29.557Z,4.15
2019-01-27T22:22:58.407Z,4.50
2019-01-27T22:25:27.286Z,4.05
2019-01-27T22:27:56.194Z,3.85
2019-01-27T22:30:25.239Z,5.35
2019-01-27T22:32:54.175Z,5.00
2019-01-27T22:35:23.211Z,4.15
2019-01-27T22:37:52.092Z,5.08
2019-01-27T22:40:21.602Z,3.30
2019-01-27T22:42:53.283Z,3.90
2019-01-27T22:45:22.929Z,5.05
2019-01-27T22:47:52.530Z,6.25
2019-01-27T22:50:21.511Z,4.53
2019-01-27T22:52:50.431Z,4.47
2019-01-27T22:55:19.563Z,3.40
2019-01-27T22:57:48.862Z,5.95
2019-01-27T23:01:11.543Z,3.80
2019-01-27T23:03:45.842Z,5.05
2019-01-27T23:06:15.297Z,4.08
2019-01-27T23:08:44.215Z,3.98
2019-01-27T23:11:13.124Z,5.33
2019-01-27T23:13:41.958Z,4.10
2019-01-27T23:16:10.778Z,5.25
2019-01-27T23:18:40.743Z,7.35
2019-01-27T23:21:09.620Z,4.92
2019-01-27T23:23:38.580Z,5.85
2019-01-27T23:26:07.435Z,5.35
2019-01-27T23:28:36.199Z,4.67
2019-01-27T23:31:05.433Z,5.62
2019-01-27T23:33:34.191Z,5.72
2019-01-27T23:36:03.151Z,5.15
2019-01-27T23:38:31.952Z,7.28
2019-01-27T23:41:00.735Z,6.47
2019-01-27T23:43:29.622Z,5.78
2019-01-27T23:45:58.376Z,5.05
2019-01-27T23:48:27.294Z,4.83
2019-01-27T23:50:56.474Z,4.95
2019-01-27T23:53:25.330Z,5.25
2019-01-27T23:55:54.222Z,5.78
2019-01-27T23:58:22.976Z,5.17
